sensor_id;sensor_type;location;lat;lon;timestamp;pressure;altitude;pressure_sealevel;temperature;humidity
78745;BME280;68064;53.100;8.824;2023-12-07T00:00:48;101898.84;;;1.10;100.00
78745;BME280;68064;53.100;8.824;2023-12-07T00:01:51;101903.16;;;1.11;100.00
78745;BME280;68064;53.100;8.824;2023-12-07T00:02:52;101900.47;;;1.09;100.00
78745;BME280;68064;53.100;8.824;2023-12-07T00:03:53;101904.94;;;1.12;100.00
78745;BME280;68064;53.100;8.824;2023-12-07T00:04:54;101905.78;;;1.12;100.00
78745;BME280;68064;53.100;8.824;2023-12-07T00:05:55;101903.28;;;1.12;100.00
78745;BME280;68064;53.100;8.824;2023-12-07T00:06:56;101892.91;;;1.18;100.00
78745;BME280;68064;53.100;8.824;2023-12-07T00:07:57;101905.34;;;1.16;100.00
78745;BME280;68064;53.100;8.824;2023-12-07T00:08:58;101901.50;;;1.20;100.00
78745;BME280;68064;53.100;8.824;2023-12-07T00:09:59;101899.88;;;1.20;100.00
78745;BME280;68064;53.100;8.824;2023-12-07T00:11:00;101900.63;;;1.19;100.00
78745;BME280;68064;53.100;8.824;2023-12-07T00:12:01;101897.78;;;1.16;100.00
78745;BME280;68064;53.100;8.824;2023-12-07T00:13:02;101898.69;;;1.17;100.00
78745;BME280;68064;53.100;8.824;2023-12-07T00:14:03;101899.16;;;1.21;100.00
78745;BME280;68064;53.100;8.824;2023-12-07T00:15:06;101902.41;;;1.20;100.00
78745;BME280;68064;53.100;8.824;2023-12-07T00:16:07;101906.72;;;1.21;100.00
78745;BME280;68064;53.100;8.824;2023-12-07T00:17:09;101909.97;;;1.20;100.00
78745;BME280;68064;53.100;8.824;2023-12-07T00:18:11;101906.38;;;1.18;100.00
78745;BME280;68064;53.100;8.824;2023-12-07T00:19:12;101911.59;;;1.20;100.00
78745;BME280;68064;53.100;8.824;2023-12-07T00:20:13;101906.56;;;1.20;100.00
78745;BME280;68064;53.100;8.824;2023-12-07T00:21:14;101895.88;;;1.22;100.00
78745;BME280;68064;53.100;8.824;2023-12-07T00:22:15;101902.81;;;1.25;100.00
78745;BME280;68064;53.100;8.824;2023-12-07T00:23:16;101908.63;;;1.24;100.00
78745;BME280;68064;53.100;8.824;2023-12-07T00:24:17;101904.50;;;1.24;100.00
78745;BME280;68064;53.100;8.824;2023-12-07T00:25:18;101905.34;;;1.25;100.00
78745;BME280;68064;53.100;8.824;2023-12-07T00:26:19;101902.81;;;1.25;100.00
78745;BME280;68064;53.100;8.824;2023-12-07T00:27:20;101904.50;;;1.24;100.00
78745;BME280;68064;53.100;8.824;2023-12-07T00:28:21;101904.50;;;1.24;100.00
78745;BME280;68064;53.100;8.824;2023-12-07T00:29:22;101900.31;;;1.25;100.00
78745;BME280;68064;53.100;8.824;2023-12-07T00:30:23;101901.81;;;1.23;100.00
78745;BME280;68064;53.100;8.824;2023-12-07T00:31:24;101905.22;;;1.23;100.00
78745;BME280;68064;53.100;8.824;2023-12-07T00:32:27;101904.50;;;1.24;100.00
78745;BME280;68064;53.100;8.824;2023-12-07T00:33:28;101900.16;;;1.23;100.00
78745;BME280;68064;53.100;8.824;2023-12-07T00:34:29;101902.53;;;1.22;100.00
78745;BME280;68064;53.100;8.824;2023-12-07T00:35:30;101903.88;;;1.18;100.00
78745;BME280;68064;53.100;8.824;2023-12-07T00:36:31;101904.47;;;1.16;100.00
78745;BME280;68064;53.100;8.824;2023-12-07T00:37:32;101900.91;;;1.14;100.00
78745;BME280;68064;53.100;8.824;2023-12-07T00:38:33;101907.44;;;1.12;100.00
78745;BME280;68064;53.100;8.824;2023-12-07T00:39:34;101906.84;;;1.14;100.00
78745;BME280;68064;53.100;8.824;2023-12-07T00:40:35;101904.34;;;1.14;100.00
78745;BME280;68064;53.100;8.824;2023-12-07T00:41:36;101912.94;;;1.16;100.00
78745;BME280;68064;53.100;8.824;2023-12-07T00:42:38;101911.31;;;1.17;100.00
78745;BME280;68064;53.100;8.824;2023-12-07T00:43:39;101912.94;;;1.16;100.00
78745;BME280;68064;53.100;8.824;2023-12-07T00:44:40;101911.31;;;1.17;100.00
78745;BME280;68064;53.100;8.824;2023-12-07T00:45:41;101914.13;;;1.20;100.00
78745;BME280;68064;53.100;8.824;2023-12-07T00:46:42;101914.28;;;1.21;100.00
78745;BME280;68064;53.100;8.824;2023-12-07T00:47:45;101915.13;;;1.22;100.00
78745;BME280;68064;53.100;8.824;2023-12-07T00:48:46;101914.13;;;1.20;100.00
78745;BME280;68064;53.100;8.824;2023-12-07T00:49:47;101912.50;;;1.20;100.00
78745;BME280;68064;53.100;8.824;2023-12-07T00:50:48;101916.03;;;1.22;100.00
78745;BME280;68064;53.100;8.824;2023-12-07T00:51:49;101911.88;;;1.23;100.00
78745;BME280;68064;53.100;8.824;2023-12-07T00:52:50;101914.56;;;1.24;100.00
78745;BME280;68064;53.100;8.824;2023-12-07T00:53:51;101921.84;;;1.21;100.00
78745;BME280;68064;53.100;8.824;2023-12-07T00:54:52;101921.25;;;1.24;100.00
78745;BME280;68064;53.100;8.824;2023-12-07T00:55:53;101919.31;;;1.21;100.00
78745;BME280;68064;53.100;8.824;2023-12-07T00:56:54;101917.38;;;1.19;100.00
78745;BME280;68064;53.100;8.824;2023-12-07T00:57:55;101935.31;;;1.22;100.00
78745;BME280;68064;53.100;8.824;2023-12-07T00:58:56;101928.50;;;1.21;100.00
78745;BME280;68064;53.100;8.824;2023-12-07T00:59:58;101925.22;;;1.22;100.00
78745;BME280;68064;53.100;8.824;2023-12-07T01:00:59;101927.63;;;1.20;100.00
78745;BME280;68064;53.100;8.824;2023-12-07T01:02:00;101926.72;;;1.20;100.00
78745;BME280;68064;53.100;8.824;2023-12-07T01:03:02;101941.25;;;1.22;100.00
78745;BME280;68064;53.100;8.824;2023-12-07T01:04:04;101930.13;;;1.20;100.00
78745;BME280;68064;53.100;8.824;2023-12-07T01:05:05;101937.72;;;1.20;100.00
78745;BME280;68064;53.100;8.824;2023-12-07T01:06:06;101938.72;;;1.22;100.00
78745;BME280;68064;53.100;8.824;2023-12-07T01:07:07;101940.34;;;1.22;100.00
78745;BME280;68064;53.100;8.824;2023-12-07T01:08:08;101945.09;;;1.19;100.00
78745;BME280;68064;53.100;8.824;2023-12-07T01:09:09;101939.34;;;1.20;100.00
78745;BME280;68064;53.100;8.824;2023-12-07T01:10:10;101943.34;;;1.18;100.00
78745;BME280;68064;53.100;8.824;2023-12-07T01:11:11;101942.59;;;1.19;100.00
78745;BME280;68064;53.100;8.824;2023-12-07T01:12:12;101938.59;;;1.21;100.00
78745;BME280;68064;53.100;8.824;2023-12-07T01:13:13;101943.78;;;1.22;100.00
78745;BME280;68064;53.100;8.824;2023-12-07T01:14:15;101944.38;;;1.20;100.00
78745;BME280;68064;53.100;8.824;2023-12-07T01:15:16;101949.72;;;1.23;100.00
78745;BME280;68064;53.100;8.824;2023-12-07T01:16:17;101949.13;;;1.25;100.00
78745;BME280;68064;53.100;8.824;2023-12-07T01:17:18;101947.34;;;1.24;100.00
78745;BME280;68064;53.100;8.824;2023-12-07T01:18:20;101957.44;;;1.24;100.00
78745;BME280;68064;53.100;8.824;2023-12-07T01:19:21;101960.69;;;1.23;100.00
78745;BME280;68064;53.100;8.824;2023-12-07T01:20:22;101951.03;;;1.19;100.00
78745;BME280;68064;53.100;8.824;2023-12-07T01:21:24;101952.22;;;1.23;100.00
78745;BME280;68064;53.100;8.824;2023-12-07T01:22:25;101959.06;;;1.24;100.00
78745;BME280;68064;53.100;8.824;2023-12-07T01:23:26;101957.75;;;1.27;100.00
78745;BME280;68064;53.100;8.824;2023-12-07T01:24:27;101956.38;;;1.22;100.00
78745;BME280;68064;53.100;8.824;2023-12-07T01:25:28;101960.53;;;1.22;100.00
78745;BME280;68064;53.100;8.824;2023-12-07T01:26:29;101965.13;;;1.26;100.00
78745;BME280;68064;53.100;8.824;2023-12-07T01:27:30;101960.53;;;1.22;100.00
78745;BME280;68064;53.100;8.824;2023-12-07T01:28:31;101970.06;;;1.24;100.00
78745;BME280;68064;53.100;8.824;2023-12-07T01:29:32;101961.59;;;1.24;100.00
78745;BME280;68064;53.100;8.824;2023-12-07T01:30:33;101965.31;;;1.27;100.00
78745;BME280;68064;53.100;8.824;2023-12-07T01:31:34;101965.88;;;1.25;100.00
78745;BME280;68064;53.100;8.824;2023-12-07T01:32:35;101965.31;;;1.27;100.00
78745;BME280;68064;53.100;8.824;2023-12-07T01:33:38;101968.41;;;1.25;100.00
78745;BME280;68064;53.100;8.824;2023-12-07T01:34:39;101964.13;;;1.24;100.00
78745;BME280;68064;53.100;8.824;2023-12-07T01:35:40;101967.22;;;1.21;100.00
78745;BME280;68064;53.100;8.824;2023-12-07T01:36:41;101968.88;;;1.21;100.00
78745;BME280;68064;53.100;8.824;2023-12-07T01:37:42;101973.00;;;1.20;100.00
78745;BME280;68064;53.100;8.824;2023-12-07T01:38:43;101975.22;;;1.17;100.00
78745;BME280;68064;53.100;8.824;2023-12-07T01:39:44;101967.78;;;1.19;100.00
78745;BME280;68064;53.100;8.824;2023-12-07T01:40:45;101964.72;;;1.21;100.00
78745;BME280;68064;53.100;8.824;2023-12-07T01:41:46;101971.69;;;1.24;100.00
78745;BME280;68064;53.100;8.824;2023-12-07T01:42:50;101971.69;;;1.24;100.00
78745;BME280;68064;53.100;8.824;2023-12-07T01:43:52;101961.72;;;1.25;100.00
78745;BME280;68064;53.100;8.824;2023-12-07T01:44:53;101970.91;;;1.25;100.00
78745;BME280;68064;53.100;8.824;2023-12-07T01:45:57;101968.69;;;1.28;100.00
78745;BME280;68064;53.100;8.824;2023-12-07T01:46:58;101965.75;;;1.23;100.00
78745;BME280;68064;53.100;8.824;2023-12-07T01:47:59;101963.22;;;1.23;100.00
78745;BME280;68064;53.100;8.824;2023-12-07T01:49:02;101965.31;;;1.27;100.00
78745;BME280;68064;53.100;8.824;2023-12-07T01:50:04;101968.25;;;1.23;100.00
78745;BME280;68064;53.100;8.824;2023-12-07T01:51:06;101962.19;;;1.21;100.00
78745;BME280;68064;53.100;8.824;2023-12-07T01:52:08;101972.41;;;1.23;100.00
78745;BME280;68064;53.100;8.824;2023-12-07T01:53:10;101977.44;;;1.23;100.00
78745;BME280;68064;53.100;8.824;2023-12-07T01:54:11;101965.75;;;1.23;100.00
78745;BME280;68064;53.100;8.824;2023-12-07T01:55:12;101968.88;;;1.21;100.00
78745;BME280;68064;53.100;8.824;2023-12-07T01:56:14;101974.94;;;1.23;100.00
78745;BME280;68064;53.100;8.824;2023-12-07T01:57:15;101971.69;;;1.24;100.00
78745;BME280;68064;53.100;8.824;2023-12-07T01:58:17;101966.47;;;1.22;100.00
78745;BME280;68064;53.100;8.824;2023-12-07T01:59:19;101979.06;;;1.22;100.00
78745;BME280;68064;53.100;8.824;2023-12-07T02:00:20;101967.97;;;1.20;100.00
78745;BME280;68064;53.100;8.824;2023-12-07T02:01:21;101970.63;;;1.22;100.00
78745;BME280;68064;53.100;8.824;2023-12-07T02:02:22;101969.00;;;1.22;100.00
78745;BME280;68064;53.100;8.824;2023-12-07T02:03:24;101972.28;;;1.21;100.00
78745;BME280;68064;53.100;8.824;2023-12-07T02:04:26;101969.75;;;1.21;100.00
78745;BME280;68064;53.100;8.824;2023-12-07T02:05:29;101962.91;;;1.20;100.00
78745;BME280;68064;53.100;8.824;2023-12-07T02:06:30;101972.09;;;1.20;100.00
78745;BME280;68064;53.100;8.824;2023-12-07T02:07:31;101971.22;;;1.19;99.90
78745;BME280;68064;53.100;8.824;2023-12-07T02:08:32;101970.31;;;1.19;100.00
78745;BME280;68064;53.100;8.824;2023-12-07T02:09:33;101977.88;;;1.19;99.87
78745;BME280;68064;53.100;8.824;2023-12-07T02:10:34;101971.09;;;1.18;100.00
78745;BME280;68064;53.100;8.824;2023-12-07T02:11:35;101975.38;;;1.19;100.00
78745;BME280;68064;53.100;8.824;2023-12-07T02:12:37;101973.00;;;1.20;99.77
78745;BME280;68064;53.100;8.824;2023-12-07T02:13:39;101970.63;;;1.22;100.00
78745;BME280;68064;53.100;8.824;2023-12-07T02:14:41;101972.84;;;1.19;100.00
78745;BME280;68064;53.100;8.824;2023-12-07T02:15:42;101980.09;;;1.16;100.00
78745;BME280;68064;53.100;8.824;2023-12-07T02:16:48;101977.47;;;1.14;100.00
78745;BME280;68064;53.100;8.824;2023-12-07T02:17:55;101981.91;;;1.17;100.00
78745;BME280;68064;53.100;8.824;2023-12-07T02:19:05;101979.38;;;1.17;100.00
78745;BME280;68064;53.100;8.824;2023-12-07T02:20:16;101974.63;;;1.20;100.00
78745;BME280;68064;53.100;8.824;2023-12-07T02:21:25;101980.41;;;1.19;99.88
78745;BME280;68064;53.100;8.824;2023-12-07T02:22:34;101983.22;;;1.22;99.95
78745;BME280;68064;53.100;8.824;2023-12-07T02:23:42;101977.31;;;1.21;100.00
78745;BME280;68064;53.100;8.824;2023-12-07T02:24:54;101976.25;;;1.19;99.75
78745;BME280;68064;53.100;8.824;2023-12-07T02:26:03;101978.66;;;1.18;99.93
78745;BME280;68064;53.100;8.824;2023-12-07T02:27:05;101975.09;;;1.24;99.70
78745;BME280;68064;53.100;8.824;2023-12-07T02:28:06;101974.03;;;1.22;100.00
78745;BME280;68064;53.100;8.824;2023-12-07T02:29:08;101984.88;;;1.21;100.00
78745;BME280;68064;53.100;8.824;2023-12-07T02:30:10;101980.88;;;1.23;100.00
78745;BME280;68064;53.100;8.824;2023-12-07T02:31:11;101977.59;;;1.16;100.00
78745;BME280;68064;53.100;8.824;2023-12-07T02:32:12;101984.00;;;1.21;100.00
78745;BME280;68064;53.100;8.824;2023-12-07T02:33:14;101981.47;;;1.21;100.00
78745;BME280;68064;53.100;8.824;2023-12-07T02:34:15;101978.78;;;1.19;100.00
78745;BME280;68064;53.100;8.824;2023-12-07T02:35:16;101979.50;;;1.18;100.00
78745;BME280;68064;53.100;8.824;2023-12-07T02:36:19;101974.34;;;1.17;100.00
78745;BME280;68064;53.100;8.824;2023-12-07T02:37:21;101977.00;;;1.18;100.00
78745;BME280;68064;53.100;8.824;2023-12-07T02:38:26;101973.59;;;1.18;100.00
78745;BME280;68064;53.100;8.824;2023-12-07T02:39:27;101971.94;;;1.18;100.00
78745;BME280;68064;53.100;8.824;2023-12-07T02:40:28;101977.31;;;1.21;100.00
78745;BME280;68064;53.100;8.824;2023-12-07T02:41:31;101970.31;;;1.19;99.85
78745;BME280;68064;53.100;8.824;2023-12-07T02:42:33;101977.31;;;1.21;99.81
78745;BME280;68064;53.100;8.824;2023-12-07T02:43:35;101978.66;;;1.26;99.67
78745;BME280;68064;53.100;8.824;2023-12-07T02:44:36;101975.81;;;1.23;99.31
78745;BME280;68064;53.100;8.824;2023-12-07T02:45:37;101980.13;;;1.24;99.81
78745;BME280;68064;53.100;8.824;2023-12-07T02:46:38;101978.66;;;1.26;99.60
78745;BME280;68064;53.100;8.824;2023-12-07T02:47:39;101973.59;;;1.26;99.75
78745;BME280;68064;53.100;8.824;2023-12-07T02:48:40;101982.66;;;1.24;99.83
78745;BME280;68064;53.100;8.824;2023-12-07T02:49:41;101986.34;;;1.28;100.00
78745;BME280;68064;53.100;8.824;2023-12-07T02:50:42;101979.38;;;1.25;100.00
78745;BME280;68064;53.100;8.824;2023-12-07T02:51:44;101977.75;;;1.26;100.00
78745;BME280;68064;53.100;8.824;2023-12-07T02:52:45;101973.31;;;1.23;100.00
78745;BME280;68064;53.100;8.824;2023-12-07T02:53:46;101975.81;;;1.23;100.00
78745;BME280;68064;53.100;8.824;2023-12-07T02:54:47;101973.13;;;1.22;99.75
78745;BME280;68064;53.100;8.824;2023-12-07T02:55:48;101974.81;;;1.21;100.00
78745;BME280;68064;53.100;8.824;2023-12-07T02:56:49;101981.31;;;1.19;100.00
78745;BME280;68064;53.100;8.824;2023-12-07T02:57:52;101984.56;;;1.18;100.00
78745;BME280;68064;53.100;8.824;2023-12-07T02:58:53;101984.88;;;1.21;100.00
78745;BME280;68064;53.100;8.824;2023-12-07T02:59:54;101984.88;;;1.21;100.00
78745;BME280;68064;53.100;8.824;2023-12-07T03:00:55;101991.38;;;1.19;99.90
78745;BME280;68064;53.100;8.824;2023-12-07T03:01:56;101988.75;;;1.18;100.00
78745;BME280;68064;53.100;8.824;2023-12-07T03:02:57;101989.75;;;1.20;100.00
78745;BME280;68064;53.100;8.824;2023-12-07T03:03:58;101982.66;;;1.24;99.88
78745;BME280;68064;53.100;8.824;2023-12-07T03:04:59;101979.25;;;1.24;99.58
78745;BME280;68064;53.100;8.824;2023-12-07T03:06:00;101980.88;;;1.23;100.00
78745;BME280;68064;53.100;8.824;2023-12-07T03:07:01;101980.72;;;1.22;100.00
78745;BME280;68064;53.100;8.824;2023-12-07T03:08:03;101974.19;;;1.24;99.70
78745;BME280;68064;53.100;8.824;2023-12-07T03:09:04;101975.81;;;1.23;100.00
78745;BME280;68064;53.100;8.824;2023-12-07T03:10:05;101980.88;;;1.23;100.00
78745;BME280;68064;53.100;8.824;2023-12-07T03:11:07;101982.38;;;1.21;100.00
78745;BME280;68064;53.100;8.824;2023-12-07T03:12:08;101987.25;;;1.20;100.00
78745;BME280;68064;53.100;8.824;2023-12-07T03:13:10;101976.25;;;1.19;100.00
78745;BME280;68064;53.100;8.824;2023-12-07T03:14:11;101983.09;;;1.20;100.00
78745;BME280;68064;53.100;8.824;2023-12-07T03:15:13;101983.81;;;1.19;100.00
78745;BME280;68064;53.100;8.824;2023-12-07T03:16:14;101981.59;;;1.22;100.00
78745;BME280;68064;53.100;8.824;2023-12-07T03:17:15;101989.03;;;1.21;100.00
78745;BME280;68064;53.100;8.824;2023-12-07T03:18:16;101974.81;;;1.21;100.00
78745;BME280;68064;53.100;8.824;2023-12-07T03:19:17;101984.13;;;1.22;100.00
78745;BME280;68064;53.100;8.824;2023-12-07T03:20:18;101983.81;;;1.19;100.00
78745;BME280;68064;53.100;8.824;2023-12-07T03:21:19;101985.31;;;1.17;100.00
78745;BME280;68064;53.100;8.824;2023-12-07T03:22:20;101983.53;;;1.16;100.00
78745;BME280;68064;53.100;8.824;2023-12-07T03:23:21;101988.56;;;1.16;100.00
78745;BME280;68064;53.100;8.824;2023-12-07T03:24:22;101994.63;;;1.18;100.00
78745;BME280;68064;53.100;8.824;2023-12-07T03:25:24;101998.81;;;1.18;100.00
78745;BME280;68064;53.100;8.824;2023-12-07T03:26:26;101991.09;;;1.16;100.00
78745;BME280;68064;53.100;8.824;2023-12-07T03:27:27;101994.34;;;1.15;100.00
78745;BME280;68064;53.100;8.824;2023-12-07T03:28:29;102003.69;;;1.16;100.00
78745;BME280;68064;53.100;8.824;2023-12-07T03:29:31;102003.41;;;1.22;100.00
78745;BME280;68064;53.100;8.824;2023-12-07T03:30:32;101993.47;;;1.23;100.00
78745;BME280;68064;53.100;8.824;2023-12-07T03:31:33;101990.06;;;1.23;100.00
78745;BME280;68064;53.100;8.824;2023-12-07T03:32:34;101995.56;;;1.27;100.00
78745;BME280;68064;53.100;8.824;2023-12-07T03:33:35;101991.97;;;1.25;100.00
78745;BME280;68064;53.100;8.824;2023-12-07T03:34:36;102002.53;;;1.21;100.00
78745;BME280;68064;53.100;8.824;2023-12-07T03:35:38;101997.94;;;1.17;100.00
78745;BME280;68064;53.100;8.824;2023-12-07T03:36:39;102002.22;;;1.18;100.00
78745;BME280;68064;53.100;8.824;2023-12-07T03:37:40;102001.47;;;1.19;100.00
78745;BME280;68064;53.100;8.824;2023-12-07T03:38:41;102000.44;;;1.17;100.00
78745;BME280;68064;53.100;8.824;2023-12-07T03:39:42;101997.75;;;1.16;100.00
78745;BME280;68064;53.100;8.824;2023-12-07T03:40:43;101996.88;;;1.15;100.00
78745;BME280;68064;53.100;8.824;2023-12-07T03:41:44;102004.44;;;1.15;100.00
78745;BME280;68064;53.100;8.824;2023-12-07T03:42:45;102002.38;;;1.20;100.00
78745;BME280;68064;53.100;8.824;2023-12-07T03:43:48;101998.94;;;1.19;99.98
78745;BME280;68064;53.100;8.824;2023-12-07T03:46:39;102011.25;;;1.16;100.00
78745;BME280;68064;53.100;8.824;2023-12-07T03:47:40;102008.59;;;1.15;100.00
78745;BME280;68064;53.100;8.824;2023-12-07T03:48:41;102005.91;;;1.13;100.00
78745;BME280;68064;53.100;8.824;2023-12-07T03:49:44;102006.66;;;1.12;100.00
78745;BME280;68064;53.100;8.824;2023-12-07T03:50:45;102016.00;;;1.13;100.00
78745;BME280;68064;53.100;8.824;2023-12-07T03:51:46;102010.97;;;1.13;100.00
78745;BME280;68064;53.100;8.824;2023-12-07T03:52:47;102004.13;;;1.12;100.00
78745;BME280;68064;53.100;8.824;2023-12-07T03:53:48;102015.28;;;1.14;100.00
78745;BME280;68064;53.100;8.824;2023-12-07T03:54:49;102021.22;;;1.15;100.00
78745;BME280;68064;53.100;8.824;2023-12-07T03:55:50;102014.22;;;1.12;100.00
78745;BME280;68064;53.100;8.824;2023-12-07T03:56:51;102018.38;;;1.12;100.00
78745;BME280;68064;53.100;8.824;2023-12-07T03:57:52;102014.38;;;1.14;100.00
78745;BME280;68064;53.100;8.824;2023-12-07T03:58:55;102016.31;;;1.16;100.00
78745;BME280;68064;53.100;8.824;2023-12-07T03:59:56;102015.41;;;1.16;100.00
78745;BME280;68064;53.100;8.824;2023-12-07T04:00:57;102009.63;;;1.17;100.00
78745;BME280;68064;53.100;8.824;2023-12-07T04:01:58;102022.97;;;1.16;100.00
78745;BME280;68064;53.100;8.824;2023-12-07T04:03:00;102019.00;;;1.18;100.00
78745;BME280;68064;53.100;8.824;2023-12-07T04:04:01;102018.81;;;1.16;100.00
78745;BME280;68064;53.100;8.824;2023-12-07T04:05:02;102021.22;;;1.15;100.00
78745;BME280;68064;53.100;8.824;2023-12-07T04:06:04;102021.50;;;1.18;100.00
78745;BME280;68064;53.100;8.824;2023-12-07T04:07:05;102021.34;;;1.16;100.00
78745;BME280;68064;53.100;8.824;2023-12-07T04:08:06;102013.78;;;1.16;100.00
78745;BME280;68064;53.100;8.824;2023-12-07T04:09:07;102015.28;;;1.14;100.00
78745;BME280;68064;53.100;8.824;2023-12-07T04:10:09;102018.81;;;1.16;100.00
78745;BME280;68064;53.100;8.824;2023-12-07T04:11:10;102014.25;;;1.21;100.00
78745;BME280;68064;53.100;8.824;2023-12-07T04:12:11;102016.59;;;1.19;100.00
78745;BME280;68064;53.100;8.824;2023-12-07T04:13:12;102014.81;;;1.18;100.00
78745;BME280;68064;53.100;8.824;2023-12-07T04:14:15;102018.81;;;1.16;100.00
78745;BME280;68064;53.100;8.824;2023-12-07T04:15:16;102018.41;;;1.20;100.00
78745;BME280;68064;53.100;8.824;2023-12-07T04:16:17;102024.91;;;1.18;100.00
78745;BME280;68064;53.100;8.824;2023-12-07T04:17:18;102010.38;;;1.16;100.00
78745;BME280;68064;53.100;8.824;2023-12-07T04:18:19;102015.56;;;1.17;100.00
78745;BME280;68064;53.100;8.824;2023-12-07T04:19:20;102021.66;;;1.19;100.00
78745;BME280;68064;53.100;8.824;2023-12-07T04:20:21;102021.22;;;1.15;100.00
78745;BME280;68064;53.100;8.824;2023-12-07T04:21:23;102016.31;;;1.16;100.00
78745;BME280;68064;53.100;8.824;2023-12-07T04:22:24;102021.34;;;1.16;100.00
78745;BME280;68064;53.100;8.824;2023-12-07T04:23:25;102025.38;;;1.14;100.00
78745;BME280;68064;53.100;8.824;2023-12-07T04:24:26;102022.06;;;1.15;100.00
78745;BME280;68064;53.100;8.824;2023-12-07T04:25:27;102024.59;;;1.15;100.00
78745;BME280;68064;53.100;8.824;2023-12-07T04:26:28;102021.06;;;1.13;100.00
78745;BME280;68064;53.100;8.824;2023-12-07T04:27:29;102019.44;;;1.14;100.00
78745;BME280;68064;53.100;8.824;2023-12-07T04:28:30;102017.19;;;1.17;100.00
78745;BME280;68064;53.100;8.824;2023-12-07T04:29:33;102022.25;;;1.17;100.00
78745;BME280;68064;53.100;8.824;2023-12-07T04:30:34;102028.00;;;1.16;100.00
78745;BME280;68064;53.100;8.824;2023-12-07T04:31:35;102022.84;;;1.14;100.00
78745;BME280;68064;53.100;8.824;2023-12-07T04:32:36;102025.38;;;1.14;100.00
78745;BME280;68064;53.100;8.824;2023-12-07T04:33:37;102022.06;;;1.15;100.00
78745;BME280;68064;53.100;8.824;2023-12-07T04:34:38;102021.34;;;1.16;100.00
78745;BME280;68064;53.100;8.824;2023-12-07T04:35:40;102013.78;;;1.16;100.00
78745;BME280;68064;53.100;8.824;2023-12-07T04:36:41;102009.47;;;1.15;100.00
78745;BME280;68064;53.100;8.824;2023-12-07T04:37:42;102009.78;;;1.18;100.00
78745;BME280;68064;53.100;8.824;2023-12-07T04:38:43;102014.81;;;1.18;100.00
78745;BME280;68064;53.100;8.824;2023-12-07T04:39:44;102011.25;;;1.16;100.00
78745;BME280;68064;53.100;8.824;2023-12-07T04:40:45;102011.44;;;1.18;100.00
78745;BME280;68064;53.100;8.824;2023-12-07T04:41:46;102008.00;;;1.17;99.87
78745;BME280;68064;53.100;8.824;2023-12-07T04:42:47;102014.81;;;1.18;100.00
78745;BME280;68064;53.100;8.824;2023-12-07T04:43:48;102004.91;;;1.20;99.73
78745;BME280;68064;53.100;8.824;2023-12-07T04:44:51;102001.47;;;1.19;99.37
78745;BME280;68064;53.100;8.824;2023-12-07T04:45:52;102014.25;;;1.21;99.88
78745;BME280;68064;53.100;8.824;2023-12-07T04:46:53;102007.88;;;1.24;99.90
78745;BME280;68064;53.100;8.824;2023-12-07T04:47:54;102005.34;;;1.24;99.30
78745;BME280;68064;53.100;8.824;2023-12-07T04:48:55;102010.09;;;1.21;99.92
78745;BME280;68064;53.100;8.824;2023-12-07T04:49:56;102007.41;;;1.20;99.37
78745;BME280;68064;53.100;8.824;2023-12-07T04:50:57;102009.22;;;1.21;99.33
78745;BME280;68064;53.100;8.824;2023-12-07T04:51:58;102017.50;;;1.20;99.62
78745;BME280;68064;53.100;8.824;2023-12-07T04:52:59;102014.81;;;1.18;99.47
78745;BME280;68064;53.100;8.824;2023-12-07T04:54:00;102014.81;;;1.18;99.87
78745;BME280;68064;53.100;8.824;2023-12-07T04:55:01;102013.06;;;1.17;99.67
78745;BME280;68064;53.100;8.824;2023-12-07T04:56:02;102014.81;;;1.18;99.42
78745;BME280;68064;53.100;8.824;2023-12-07T04:57:04;102025.38;;;1.23;99.63
78745;BME280;68064;53.100;8.824;2023-12-07T04:58:05;102027.88;;;1.23;99.38
78745;BME280;68064;53.100;8.824;2023-12-07T04:59:06;102021.22;;;1.23;99.58
78745;BME280;68064;53.100;8.824;2023-12-07T05:00:09;102019.28;;;1.21;99.56
78745;BME280;68064;53.100;8.824;2023-12-07T05:01:10;102021.22;;;1.23;99.25
78745;BME280;68064;53.100;8.824;2023-12-07T05:02:12;102023.56;;;1.22;100.00
78745;BME280;68064;53.100;8.824;2023-12-07T05:03:13;102022.38;;;1.18;100.00
78745;BME280;68064;53.100;8.824;2023-12-07T05:04:14;102022.38;;;1.18;100.00
78745;BME280;68064;53.100;8.824;2023-12-07T05:05:15;102021.66;;;1.19;99.25
78745;BME280;68064;53.100;8.824;2023-12-07T05:06:16;102024.03;;;1.18;99.50
78745;BME280;68064;53.100;8.824;2023-12-07T05:07:17;102031.00;;;1.20;100.00
78745;BME280;68064;53.100;8.824;2023-12-07T05:08:18;102026.56;;;1.26;100.00
78745;BME280;68064;53.100;8.824;2023-12-07T05:09:19;102022.13;;;1.24;99.65
78745;BME280;68064;53.100;8.824;2023-12-07T05:10:20;102023.44;;;1.20;99.40
78745;BME280;68064;53.100;8.824;2023-12-07T05:11:21;102024.47;;;1.22;99.45
78745;BME280;68064;53.100;8.824;2023-12-07T05:12:23;102018.69;;;1.23;99.57
78745;BME280;68064;53.100;8.824;2023-12-07T05:13:24;102023.75;;;1.23;99.29
78745;BME280;68064;53.100;8.824;2023-12-07T05:14:25;102017.22;;;1.25;99.27
78745;BME280;68064;53.100;8.824;2023-12-07T05:15:27;102021.22;;;1.23;99.51
78745;BME280;68064;53.100;8.824;2023-12-07T05:16:28;102026.84;;;1.21;100.00
78745;BME280;68064;53.100;8.824;2023-12-07T05:17:29;102030.13;;;1.20;99.50
78745;BME280;68064;53.100;8.824;2023-12-07T05:18:31;102029.69;;;1.24;99.47
78745;BME280;68064;53.100;8.824;2023-12-07T05:19:32;102019.91;;;1.27;99.51
78745;BME280;68064;53.100;8.824;2023-12-07T05:20:33;102023.00;;;1.24;99.84
78745;BME280;68064;53.100;8.824;2023-12-07T05:21:34;102032.03;;;1.22;100.00
78745;BME280;68064;53.100;8.824;2023-12-07T05:22:35;102028.19;;;1.26;100.00
78745;BME280;68064;53.100;8.824;2023-12-07T05:23:36;102031.31;;;1.23;100.00
78745;BME280;68064;53.100;8.824;2023-12-07T05:24:37;102036.47;;;1.25;100.00